PWSweather.com
Personal Weather Stations
Station Observations
WD4JKH
Forsyth, GA 31029

Forsyth, GA 31029

Lat: 33.033225, Lon: -83.927995

Elevation: 709

Station Type: Davis Vantage VUE

High Low Average
Temperature 61.0°F16.1°C 42.1°F5.6°C 52.2°F11.2°C
Dew Point 48.9°F9.4°C 39.6°F4.2°C 43.9°F6.6°C
Winds 11.5 mph 18.5 kmh 1.0 mph 1.6 kmh 4.0 mph NE6.4 kmh NE
Wind Gusts 23.0 mph37.0 kmh 3.0 mph4.8 kmh 11.0 mph17.7 kmh
Humidity 95% 56% 74%
Pressure 30.10 in1019.3 mb 30.02 in1016.6 mb -
Precipitation 1.48 in37.6 mm - -
Hour Temp Dew Point Humidity Winds Wind Gusts Pressure Precip Precip Rate Daily Precip Total
12:01 AM 42.3°F5.7°C 40.7°F4.8°C 94% 2.8 mph NNE4.5 kmh NNE 10.0 mph16.1 kmh 30.07 in1018.3 mb 0.08 in2.0 mm 4.80 in121.9 mm 1.48 in37.6 mm
12:06 AM 42.3°F5.7°C 40.7°F4.8°C 94% 2.3 mph NNE3.7 kmh NNE 10.0 mph16.1 kmh 30.07 in1018.3 mb 0.09 in2.3 mm 0.12 in3.0 mm 0.02 in0.5 mm
12:11 AM 42.2°F5.7°C 40.6°F4.8°C 94% 1.9 mph N3.1 kmh N 7.0 mph11.3 kmh 30.07 in1018.3 mb 0.09 in2.3 mm 0.00 in0.0 mm 0.03 in0.8 mm
12:16 AM 42.2°F5.7°C 40.6°F4.8°C 94% 3.2 mph NNE5.1 kmh NNE 11.0 mph17.7 kmh 30.07 in1018.3 mb 0.08 in2.0 mm 0.00 in0.0 mm 0.04 in1.0 mm
12:21 AM 42.2°F5.7°C 40.6°F4.8°C 94% 3.5 mph NNE5.6 kmh NNE 11.0 mph17.7 kmh 30.07 in1018.3 mb 0.08 in2.0 mm 0.00 in0.0 mm 0.05 in1.3 mm
12:26 AM 42.2°F5.7°C 40.6°F4.8°C 94% 3.7 mph NNE6.0 kmh NNE 11.0 mph17.7 kmh 30.07 in1018.3 mb 0.09 in2.3 mm 0.12 in3.0 mm 0.06 in1.5 mm
12:31 AM 42.2°F5.7°C 40.6°F4.8°C 94% 3.0 mph NE4.8 kmh NE 11.0 mph17.7 kmh 30.07 in1018.3 mb 0.08 in2.0 mm 0.00 in0.0 mm 0.07 in1.8 mm
12:36 AM 42.2°F5.7°C 40.6°F4.8°C 94% 3.6 mph NNE5.8 kmh NNE 11.0 mph17.7 kmh 30.07 in1018.3 mb 0.08 in2.0 mm 0.00 in0.0 mm 0.07 in1.8 mm
12:41 AM 42.2°F5.7°C 40.6°F4.8°C 94% 3.1 mph NNE5.0 kmh NNE 11.0 mph17.7 kmh 30.07 in1018.3 mb 0.09 in2.3 mm 0.12 in3.0 mm 0.08 in2.0 mm
12:46 AM 42.2°F5.7°C 40.8°F4.9°C 95% 2.2 mph NNE3.5 kmh NNE 10.0 mph16.1 kmh 30.07 in1018.3 mb 0.08 in2.0 mm 0.00 in0.0 mm 0.08 in2.0 mm
12:51 AM 42.2°F5.7°C 40.8°F4.9°C 95% 2.6 mph N4.2 kmh N 10.0 mph16.1 kmh 30.06 in1017.9 mb 0.09 in2.3 mm 0.12 in3.0 mm 0.09 in2.3 mm
12:56 AM 42.1°F5.6°C 40.7°F4.8°C 95% 2.6 mph NNE4.2 kmh NNE 10.0 mph16.1 kmh 30.06 in1017.9 mb 0.09 in2.3 mm 0.00 in0.0 mm 0.09 in2.3 mm
01:01 AM 42.2°F5.7°C 40.9°F4.9°C 95% 3.6 mph NE5.8 kmh NE 11.0 mph17.7 kmh 30.06 in1017.9 mb 0.09 in2.3 mm 0.00 in0.0 mm 0.09 in2.3 mm
01:06 AM 42.2°F5.7°C 40.8°F4.9°C 95% 3.2 mph NNE5.1 kmh NNE 11.0 mph17.7 kmh 30.06 in1017.9 mb 0.08 in2.0 mm 0.00 in0.0 mm 0.10 in2.5 mm
01:11 AM 42.2°F5.7°C 40.8°F4.9°C 95% 3.1 mph N5.0 kmh N 11.0 mph17.7 kmh 30.06 in1017.9 mb 0.08 in2.0 mm 0.00 in0.0 mm 0.11 in2.8 mm
01:16 AM 42.3°F5.7°C 40.9°F4.9°C 95% 2.9 mph NE4.7 kmh NE 11.0 mph17.7 kmh 30.06 in1017.9 mb 0.08 in2.0 mm 0.00 in0.0 mm 0.12 in3.0 mm
01:21 AM 42.3°F5.7°C 40.9°F4.9°C 95% 3.9 mph N6.3 kmh N 11.0 mph17.7 kmh 30.05 in1017.6 mb 0.08 in2.0 mm 0.00 in0.0 mm 0.13 in3.3 mm
01:26 AM 42.5°F5.8°C 41.1°F5.1°C 95% 3.5 mph NE5.6 kmh NE 11.0 mph17.7 kmh 30.05 in1017.6 mb 0.07 in1.8 mm 0.00 in0.0 mm 0.13 in3.3 mm
01:31 AM 42.7°F5.9°C 41.4°F5.2°C 95% 2.6 mph NNE4.2 kmh NNE 11.0 mph17.7 kmh 30.05 in1017.6 mb 0.06 in1.5 mm 0.00 in0.0 mm 0.13 in3.3 mm
01:36 AM 42.7°F5.9°C 41.3°F5.2°C 95% 3.3 mph NE5.3 kmh NE 11.0 mph17.7 kmh 30.05 in1017.6 mb 0.05 in1.3 mm 0.00 in0.0 mm 0.13 in3.3 mm
01:41 AM 42.8°F6.0°C 41.4°F5.2°C 95% 3.2 mph NNE5.1 kmh NNE 11.0 mph17.7 kmh 30.05 in1017.6 mb 0.05 in1.3 mm 0.00 in0.0 mm 0.13 in3.3 mm
01:46 AM 42.8°F6.0°C 41.4°F5.2°C 95% 3.4 mph NNE5.5 kmh NNE 11.0 mph17.7 kmh 30.05 in1017.6 mb 0.05 in1.3 mm 0.00 in0.0 mm 0.13 in3.3 mm
01:51 AM 42.9°F6.1°C 41.6°F5.3°C 95% 2.8 mph NNE4.5 kmh NNE 12.0 mph19.3 kmh 30.05 in1017.6 mb 0.04 in1.0 mm 0.00 in0.0 mm 0.13 in3.3 mm
01:56 AM 43.0°F6.1°C 41.6°F5.3°C 95% 2.4 mph N3.9 kmh N 12.0 mph19.3 kmh 30.05 in1017.6 mb 0.05 in1.3 mm 0.12 in3.0 mm 0.14 in3.6 mm
02:01 AM 42.9°F6.1°C 41.5°F5.3°C 95% 2.6 mph NNE4.2 kmh NNE 12.0 mph19.3 kmh 30.05 in1017.6 mb 0.05 in1.3 mm 0.00 in0.0 mm 0.14 in3.6 mm
02:06 AM 43.0°F6.1°C 41.7°F5.4°C 95% 3.1 mph NNE5.0 kmh NNE 12.0 mph19.3 kmh 30.05 in1017.6 mb 0.04 in1.0 mm 0.00 in0.0 mm 0.14 in3.6 mm
02:11 AM 43.0°F6.1°C 41.7°F5.4°C 95% 3.2 mph N5.1 kmh N 10.0 mph16.1 kmh 30.05 in1017.6 mb 0.03 in0.8 mm 0.00 in0.0 mm 0.14 in3.6 mm
02:16 AM 43.0°F6.1°C 41.6°F5.3°C 95% 2.0 mph NNE3.2 kmh NNE 10.0 mph16.1 kmh 30.05 in1017.6 mb 0.02 in0.5 mm 0.00 in0.0 mm 0.14 in3.6 mm
02:21 AM 43.1°F6.2°C 41.8°F5.4°C 95% 2.8 mph NNE4.5 kmh NNE 10.0 mph16.1 kmh 30.05 in1017.6 mb 0.01 in0.3 mm 0.00 in0.0 mm 0.14 in3.6 mm
02:26 AM 43.1°F6.2°C 41.7°F5.4°C 95% 2.9 mph N4.7 kmh N 10.0 mph16.1 kmh 30.05 in1017.6 mb 0.01 in0.3 mm 0.00 in0.0 mm 0.14 in3.6 mm
02:31 AM 43.2°F6.2°C 41.8°F5.4°C 95% 2.2 mph N3.5 kmh N 10.0 mph16.1 kmh 30.04 in1017.3 mb 0.01 in0.3 mm 0.00 in0.0 mm 0.14 in3.6 mm
02:36 AM 43.3°F6.3°C 41.9°F5.5°C 95% 3.4 mph N5.5 kmh N 10.0 mph16.1 kmh 30.04 in1017.3 mb 0.01 in0.3 mm 0.00 in0.0 mm 0.14 in3.6 mm
02:41 AM 43.3°F6.3°C 41.7°F5.4°C 94% 3.6 mph NNE5.8 kmh NNE 10.0 mph16.1 kmh 30.04 in1017.3 mb 0.01 in0.3 mm 0.00 in0.0 mm 0.14 in3.6 mm
02:46 AM 43.4°F6.3°C 41.7°F5.4°C 94% 3.5 mph N5.6 kmh N 10.0 mph16.1 kmh 30.04 in1017.3 mb 0.01 in0.3 mm 0.00 in0.0 mm 0.14 in3.6 mm
02:51 AM 43.3°F6.3°C 41.6°F5.3°C 94% 4.1 mph NNE6.6 kmh NNE 10.0 mph16.1 kmh 30.04 in1017.3 mb 0.02 in0.5 mm 0.12 in3.0 mm 0.15 in3.8 mm
02:56 AM 43.3°F6.3°C 41.6°F5.3°C 94% 2.9 mph NNE4.7 kmh NNE 10.0 mph16.1 kmh 30.04 in1017.3 mb 0.01 in0.3 mm 0.00 in0.0 mm 0.15 in3.8 mm
03:01 AM 43.3°F6.3°C 41.6°F5.3°C 94% 1.9 mph N3.1 kmh N 10.0 mph16.1 kmh 30.04 in1017.3 mb 0.01 in0.3 mm 0.00 in0.0 mm 0.15 in3.8 mm
03:06 AM 43.3°F6.3°C 41.7°F5.4°C 94% 3.6 mph N5.8 kmh N 11.0 mph17.7 kmh 30.04 in1017.3 mb 0.01 in0.3 mm 0.00 in0.0 mm 0.15 in3.8 mm
03:11 AM 43.4°F6.3°C 41.7°F5.4°C 94% 3.1 mph N5.0 kmh N 11.0 mph17.7 kmh 30.04 in1017.3 mb 0.01 in0.3 mm 0.00 in0.0 mm 0.15 in3.8 mm
03:16 AM 43.4°F6.3°C 41.7°F5.4°C 94% 2.6 mph N4.2 kmh N 11.0 mph17.7 kmh 30.04 in1017.3 mb 0.01 in0.3 mm 0.00 in0.0 mm 0.15 in3.8 mm
03:21 AM 43.4°F6.3°C 41.7°F5.4°C 94% 2.5 mph N4.0 kmh N 11.0 mph17.7 kmh 30.04 in1017.3 mb 0.01 in0.3 mm 0.00 in0.0 mm 0.15 in3.8 mm
03:26 AM 43.5°F6.4°C 41.9°F5.5°C 94% 3.4 mph N5.5 kmh N 10.0 mph16.1 kmh 30.04 in1017.3 mb 0.01 in0.3 mm 0.00 in0.0 mm 0.15 in3.8 mm
03:31 AM 43.5°F6.4°C 41.8°F5.4°C 94% 3.5 mph N5.6 kmh N 12.0 mph19.3 kmh 30.03 in1016.9 mb 0.01 in0.3 mm 0.00 in0.0 mm 0.15 in3.8 mm
03:36 AM 43.6°F6.4°C 41.7°F5.4°C 93% 3.3 mph N5.3 kmh N 12.0 mph19.3 kmh 30.03 in1016.9 mb 0.01 in0.3 mm 0.00 in0.0 mm 0.15 in3.8 mm
03:41 AM 43.8°F6.6°C 41.9°F5.5°C 93% 4.7 mph N7.6 kmh N 12.0 mph19.3 kmh 30.03 in1016.9 mb 0.01 in0.3 mm 0.00 in0.0 mm 0.15 in3.8 mm
03:46 AM 44.0°F6.7°C 41.8°F5.4°C 92% 5.3 mph NNE8.5 kmh NNE 12.0 mph19.3 kmh 30.03 in1016.9 mb 0.01 in0.3 mm 0.00 in0.0 mm 0.15 in3.8 mm
03:51 AM 44.1°F6.7°C 41.9°F5.5°C 92% 3.7 mph NNE6.0 kmh NNE 12.0 mph19.3 kmh 30.03 in1016.9 mb 0.00 in0.0 mm 0.00 in0.0 mm 0.15 in3.8 mm
03:56 AM 44.2°F6.8°C 42.0°F5.6°C 92% 2.8 mph NNE4.5 kmh NNE 12.0 mph19.3 kmh 30.03 in1016.9 mb 0.00 in0.0 mm 0.00 in0.0 mm 0.15 in3.8 mm
04:01 AM 44.2°F6.8°C 42.0°F5.6°C 92% 4.7 mph NNE7.6 kmh NNE 12.0 mph19.3 kmh 30.03 in1016.9 mb 0.00 in0.0 mm 0.00 in0.0 mm 0.15 in3.8 mm
04:06 AM 44.4°F6.9°C 41.9°F5.5°C 91% 5.9 mph NNE9.5 kmh NNE 12.0 mph19.3 kmh 30.04 in1017.3 mb 0.00 in0.0 mm 0.00 in0.0 mm 0.15 in3.8 mm
04:11 AM 44.4°F6.9°C 41.9°F5.5°C 91% 4.3 mph NE6.9 kmh NE 12.0 mph19.3 kmh 30.04 in1017.3 mb 0.01 in0.3 mm 0.12 in3.0 mm 0.16 in4.1 mm
04:16 AM 44.3°F6.8°C 42.1°F5.6°C 92% 3.5 mph NNE5.6 kmh NNE 12.0 mph19.3 kmh 30.04 in1017.3 mb 0.01 in0.3 mm 0.00 in0.0 mm 0.16 in4.1 mm
04:21 AM 44.2°F6.8°C 42.0°F5.6°C 92% 2.5 mph N4.0 kmh N 12.0 mph19.3 kmh 30.05 in1017.6 mb 0.01 in0.3 mm 0.00 in0.0 mm 0.16 in4.1 mm
04:26 AM 44.2°F6.8°C 42.0°F5.6°C 92% 2.9 mph NNE4.7 kmh NNE 11.0 mph17.7 kmh 30.05 in1017.6 mb 0.01 in0.3 mm 0.00 in0.0 mm 0.16 in4.1 mm
04:31 AM 44.1°F6.7°C 41.9°F5.5°C 92% 2.4 mph N3.9 kmh N 9.0 mph14.5 kmh 30.05 in1017.6 mb 0.01 in0.3 mm 0.00 in0.0 mm 0.16 in4.1 mm
04:36 AM 44.2°F6.8°C 42.0°F5.6°C 92% 2.8 mph N4.5 kmh N 10.0 mph16.1 kmh 30.05 in1017.6 mb 0.01 in0.3 mm 0.00 in0.0 mm 0.16 in4.1 mm
04:41 AM 44.2°F6.8°C 42.0°F5.6°C 92% 3.1 mph NNE5.0 kmh NNE 10.0 mph16.1 kmh 30.05 in1017.6 mb 0.01 in0.3 mm 0.00 in0.0 mm 0.16 in4.1 mm
04:46 AM 44.3°F6.8°C 41.8°F5.4°C 91% 4.4 mph NNE7.1 kmh NNE 11.0 mph17.7 kmh 30.05 in1017.6 mb 0.01 in0.3 mm 0.00 in0.0 mm 0.16 in4.1 mm
04:50 AM 44.4°F6.9°C 41.9°F5.5°C 91% 4.1 mph NNE6.6 kmh NNE 11.0 mph17.7 kmh 30.06 in1017.9 mb 0.01 in0.3 mm 0.00 in0.0 mm 0.16 in4.1 mm
04:55 AM 44.4°F6.9°C 41.9°F5.5°C 91% 5.7 mph NE9.2 kmh NE 17.0 mph27.4 kmh 30.06 in1017.9 mb 0.01 in0.3 mm 0.00 in0.0 mm 0.16 in4.1 mm
05:00 AM 44.5°F6.9°C 41.7°F5.4°C 90% 4.5 mph NE7.2 kmh NE 17.0 mph27.4 kmh 30.06 in1017.9 mb 0.01 in0.3 mm 0.00 in0.0 mm 0.16 in4.1 mm
05:05 AM 44.4°F6.9°C 41.9°F5.5°C 91% 6.4 mph NE10.3 kmh NE 17.0 mph27.4 kmh 30.05 in1017.6 mb 0.01 in0.3 mm 0.00 in0.0 mm 0.16 in4.1 mm
05:10 AM 44.3°F6.8°C 41.8°F5.4°C 91% 6.9 mph NE11.1 kmh NE 17.0 mph27.4 kmh 30.05 in1017.6 mb 0.00 in0.0 mm 0.00 in0.0 mm 0.16 in4.1 mm
05:15 AM 44.3°F6.8°C 41.8°F5.4°C 91% 4.0 mph NE6.4 kmh NE 15.0 mph24.1 kmh 30.05 in1017.6 mb 0.00 in0.0 mm 0.00 in0.0 mm 0.16 in4.1 mm
05:20 AM 44.2°F6.8°C 41.7°F5.4°C 91% 4.5 mph NE7.2 kmh NE 15.0 mph24.1 kmh 30.06 in1017.9 mb 0.00 in0.0 mm 0.00 in0.0 mm 0.16 in4.1 mm
05:25 AM 44.3°F6.8°C 41.8°F5.4°C 91% 3.6 mph NE5.8 kmh NE 15.0 mph24.1 kmh 30.05 in1017.6 mb 0.00 in0.0 mm 0.00 in0.0 mm 0.16 in4.1 mm
05:30 AM 44.6°F7.0°C 41.5°F5.3°C 89% 10.6 mph NE17.1 kmh NE 20.0 mph32.2 kmh 30.06 in1017.9 mb 0.00 in0.0 mm 0.00 in0.0 mm 0.16 in4.1 mm
05:35 AM 44.8°F7.1°C 41.2°F5.1°C 87% 11.5 mph NE18.5 kmh NE 23.0 mph37.0 kmh 30.06 in1017.9 mb 0.00 in0.0 mm 0.00 in0.0 mm 0.16 in4.1 mm
05:40 AM 44.8°F7.1°C 41.4°F5.2°C 88% 10.6 mph NE17.1 kmh NE 23.0 mph37.0 kmh 30.06 in1017.9 mb 0.00 in0.0 mm 0.00 in0.0 mm 0.16 in4.1 mm
05:45 AM 44.7°F7.1°C 41.3°F5.2°C 88% 7.3 mph NE11.7 kmh NE 23.0 mph37.0 kmh 30.06 in1017.9 mb 0.00 in0.0 mm 0.00 in0.0 mm 0.16 in4.1 mm
05:50 AM 44.6°F7.0°C 41.6°F5.3°C 89% 6.0 mph NE9.7 kmh NE 23.0 mph37.0 kmh 30.06 in1017.9 mb 0.00 in0.0 mm 0.00 in0.0 mm 0.16 in4.1 mm
05:55 AM 44.5°F6.9°C 41.4°F5.2°C 89% 4.3 mph NE6.9 kmh NE 18.0 mph29.0 kmh 30.06 in1017.9 mb 0.00 in0.0 mm 0.00 in0.0 mm 0.16 in4.1 mm
06:00 AM 44.4°F6.9°C 41.6°F5.3°C 90% 3.1 mph NE5.0 kmh NE 15.0 mph24.1 kmh 30.06 in1017.9 mb 0.00 in0.0 mm 0.00 in0.0 mm 0.16 in4.1 mm
06:05 AM 44.4°F6.9°C 41.6°F5.3°C 90% 1.9 mph NE3.1 kmh NE 14.0 mph22.5 kmh 30.06 in1017.9 mb 0.00 in0.0 mm 0.00 in0.0 mm 0.16 in4.1 mm
06:10 AM 44.4°F6.9°C 41.6°F5.3°C 90% 1.8 mph NE2.9 kmh NE 10.0 mph16.1 kmh 30.06 in1017.9 mb 0.00 in0.0 mm 0.00 in0.0 mm 0.16 in4.1 mm
06:15 AM 44.6°F7.0°C 41.5°F5.3°C 89% 2.1 mph N3.4 kmh N 9.0 mph14.5 kmh 30.06 in1017.9 mb 0.00 in0.0 mm 0.00 in0.0 mm 0.16 in4.1 mm
06:20 AM 44.9°F7.2°C 41.5°F5.3°C 88% 2.3 mph NNE3.7 kmh NNE 6.0 mph9.7 kmh 30.06 in1017.9 mb 0.00 in0.0 mm 0.00 in0.0 mm 0.16 in4.1 mm
06:25 AM 45.3°F7.4°C 41.6°F5.3°C 87% 3.4 mph N5.5 kmh N 12.0 mph19.3 kmh 30.06 in1017.9 mb 0.00 in0.0 mm 0.00 in0.0 mm 0.16 in4.1 mm
06:30 AM 45.6°F7.6°C 41.3°F5.2°C 85% 3.4 mph N5.5 kmh N 12.0 mph19.3 kmh 30.06 in1017.9 mb 0.00 in0.0 mm 0.00 in0.0 mm 0.16 in4.1 mm
06:35 AM 45.8°F7.7°C 41.2°F5.1°C 84% 2.3 mph N3.7 kmh N 12.0 mph19.3 kmh 30.07 in1018.3 mb 0.00 in0.0 mm 0.00 in0.0 mm 0.16 in4.1 mm
06:40 AM 46.0°F7.8°C 40.8°F4.9°C 82% 4.0 mph N6.4 kmh N 12.0 mph19.3 kmh 30.07 in1018.3 mb 0.00 in0.0 mm 0.00 in0.0 mm 0.16 in4.1 mm
06:45 AM 46.1°F7.8°C 40.9°F4.9°C 82% 3.7 mph NNE6.0 kmh NNE 12.0 mph19.3 kmh 30.07 in1018.3 mb 0.00 in0.0 mm 0.00 in0.0 mm 0.16 in4.1 mm
06:50 AM 46.3°F7.9°C 40.8°F4.9°C 81% 3.8 mph NE6.1 kmh NE 12.0 mph19.3 kmh 30.07 in1018.3 mb 0.00 in0.0 mm 0.00 in0.0 mm 0.16 in4.1 mm
06:55 AM 46.3°F7.9°C 40.5°F4.7°C 80% 3.1 mph N5.0 kmh N 10.0 mph16.1 kmh 30.07 in1018.3 mb 0.00 in0.0 mm 0.00 in0.0 mm 0.16 in4.1 mm
07:00 AM 46.4°F8.0°C 40.9°F4.9°C 81% 2.0 mph NNE3.2 kmh NNE 10.0 mph16.1 kmh 30.07 in1018.3 mb 0.00 in0.0 mm 0.00 in0.0 mm 0.16 in4.1 mm
07:05 AM 46.4°F8.0°C 40.3°F4.6°C 79% 2.2 mph N3.5 kmh N 9.0 mph14.5 kmh 30.07 in1018.3 mb 0.00 in0.0 mm 0.00 in0.0 mm 0.16 in4.1 mm
07:10 AM 46.5°F8.1°C 40.4°F4.7°C 79% 2.7 mph NNE4.3 kmh NNE 9.0 mph14.5 kmh 30.07 in1018.3 mb 0.00 in0.0 mm 0.00 in0.0 mm 0.16 in4.1 mm
07:15 AM 46.6°F8.1°C 40.4°F4.7°C 79% 2.1 mph NNE3.4 kmh NNE 7.0 mph11.3 kmh 30.07 in1018.3 mb 0.00 in0.0 mm 0.00 in0.0 mm 0.16 in4.1 mm
07:20 AM 46.6°F8.1°C 40.5°F4.7°C 79% 2.1 mph NNE3.4 kmh NNE 7.0 mph11.3 kmh 30.07 in1018.3 mb 0.00 in0.0 mm 0.00 in0.0 mm 0.16 in4.1 mm
07:25 AM 46.7°F8.2°C 40.9°F4.9°C 80% 2.6 mph NNE4.2 kmh NNE 7.0 mph11.3 kmh 30.07 in1018.3 mb 0.00 in0.0 mm 0.00 in0.0 mm 0.16 in4.1 mm
07:30 AM 46.8°F8.2°C 41.0°F5.0°C 80% 1.6 mph NNE2.6 kmh NNE 7.0 mph11.3 kmh 30.07 in1018.3 mb 0.00 in0.0 mm 0.00 in0.0 mm 0.16 in4.1 mm
07:35 AM 46.9°F8.3°C 41.1°F5.1°C 80% 2.5 mph N4.0 kmh N 7.0 mph11.3 kmh 30.07 in1018.3 mb 0.00 in0.0 mm 0.00 in0.0 mm 0.16 in4.1 mm
07:40 AM 47.0°F8.3°C 40.9°F4.9°C 79% 3.1 mph NNE5.0 kmh NNE 8.0 mph12.9 kmh 30.07 in1018.3 mb 0.00 in0.0 mm 0.00 in0.0 mm 0.16 in4.1 mm
07:45 AM 47.3°F8.5°C 40.8°F4.9°C 78% 4.5 mph NE7.2 kmh NE 10.0 mph16.1 kmh 30.07 in1018.3 mb 0.00 in0.0 mm 0.00 in0.0 mm 0.16 in4.1 mm
07:50 AM 47.5°F8.6°C 40.7°F4.8°C 77% 3.4 mph NNE5.5 kmh NNE 11.0 mph17.7 kmh 30.08 in1018.6 mb 0.00 in0.0 mm 0.00 in0.0 mm 0.16 in4.1 mm
07:55 AM 47.7°F8.7°C 40.5°F4.7°C 76% 3.4 mph N5.5 kmh N 12.0 mph19.3 kmh 30.08 in1018.6 mb 0.00 in0.0 mm 0.00 in0.0 mm 0.16 in4.1 mm
08:00 AM 47.8°F8.8°C 40.3°F4.6°C 75% 3.6 mph NNE5.8 kmh NNE 12.0 mph19.3 kmh 30.08 in1018.6 mb 0.00 in0.0 mm 0.00 in0.0 mm 0.16 in4.1 mm
08:05 AM 47.9°F8.8°C 40.8°F4.9°C 76% 3.6 mph NE5.8 kmh NE 12.0 mph19.3 kmh 30.08 in1018.6 mb 0.00 in0.0 mm 0.00 in0.0 mm 0.16 in4.1 mm
08:10 AM 47.9°F8.8°C 40.7°F4.8°C 76% 2.5 mph NE4.0 kmh NE 12.0 mph19.3 kmh 30.08 in1018.6 mb 0.00 in0.0 mm 0.00 in0.0 mm 0.16 in4.1 mm
08:15 AM 48.0°F8.9°C 40.9°F4.9°C 76% 3.1 mph NNE5.0 kmh NNE 14.0 mph22.5 kmh 30.08 in1018.6 mb 0.00 in0.0 mm 0.00 in0.0 mm 0.16 in4.1 mm
08:20 AM 48.1°F8.9°C 40.6°F4.8°C 75% 3.7 mph NNE6.0 kmh NNE 14.0 mph22.5 kmh 30.08 in1018.6 mb 0.00 in0.0 mm 0.00 in0.0 mm 0.16 in4.1 mm
08:25 AM 48.4°F9.1°C 40.6°F4.8°C 74% 3.5 mph NNE5.6 kmh NNE 14.0 mph22.5 kmh 30.08 in1018.6 mb 0.00 in0.0 mm 0.00 in0.0 mm 0.16 in4.1 mm
08:30 AM 48.6°F9.2°C 40.3°F4.6°C 73% 3.6 mph NE5.8 kmh NE 11.0 mph17.7 kmh 30.08 in1018.6 mb 0.00 in0.0 mm 0.00 in0.0 mm 0.16 in4.1 mm
08:35 AM 48.8°F9.3°C 40.6°F4.8°C 73% 2.6 mph NNE4.2 kmh NNE 10.0 mph16.1 kmh 30.08 in1018.6 mb 0.00 in0.0 mm 0.00 in0.0 mm 0.16 in4.1 mm
08:40 AM 48.9°F9.4°C 40.4°F4.7°C 72% 3.2 mph NE5.1 kmh NE 11.0 mph17.7 kmh 30.08 in1018.6 mb 0.00 in0.0 mm 0.00 in0.0 mm 0.16 in4.1 mm
08:45 AM 49.1°F9.5°C 40.6°F4.8°C 72% 2.4 mph NNE3.9 kmh NNE 11.0 mph17.7 kmh 30.08 in1018.6 mb 0.00 in0.0 mm 0.00 in0.0 mm 0.16 in4.1 mm
08:50 AM 49.2°F9.6°C 40.6°F4.8°C 72% 2.3 mph NNE3.7 kmh NNE 11.0 mph17.7 kmh 30.08 in1018.6 mb 0.00 in0.0 mm 0.00 in0.0 mm 0.16 in4.1 mm
08:55 AM 49.3°F9.6°C 41.1°F5.1°C 73% 3.4 mph N5.5 kmh N 11.0 mph17.7 kmh 30.08 in1018.6 mb 0.00 in0.0 mm 0.00 in0.0 mm 0.16 in4.1 mm
09:00 AM 49.4°F9.7°C 41.2°F5.1°C 73% 2.9 mph NNE4.7 kmh NNE 11.0 mph17.7 kmh 30.08 in1018.6 mb 0.00 in0.0 mm 0.00 in0.0 mm 0.16 in4.1 mm
09:05 AM 49.6°F9.8°C 41.0°F5.0°C 72% 5.0 mph NNE8.0 kmh NNE 11.0 mph17.7 kmh 30.08 in1018.6 mb 0.00 in0.0 mm 0.00 in0.0 mm 0.16 in4.1 mm
09:10 AM 49.8°F9.9°C 41.6°F5.3°C 73% 2.5 mph N4.0 kmh N 11.0 mph17.7 kmh 30.08 in1018.6 mb 0.00 in0.0 mm 0.00 in0.0 mm 0.16 in4.1 mm
09:15 AM 50.0°F10.0°C 41.8°F5.4°C 73% 2.7 mph NNE4.3 kmh NNE 10.0 mph16.1 kmh 30.08 in1018.6 mb 0.00 in0.0 mm 0.00 in0.0 mm 0.16 in4.1 mm
09:20 AM 50.1°F10.1°C 41.9°F5.5°C 73% 2.5 mph N4.0 kmh N 10.0 mph16.1 kmh 30.09 in1019.0 mb 0.00 in0.0 mm 0.00 in0.0 mm 0.16 in4.1 mm
09:25 AM 50.4°F10.2°C 42.1°F5.6°C 73% 5.8 mph N9.3 kmh N 13.0 mph20.9 kmh 30.09 in1019.0 mb 0.00 in0.0 mm 0.00 in0.0 mm 0.16 in4.1 mm
09:30 AM 50.8°F10.4°C 42.2°F5.7°C 72% 2.3 mph NNE3.7 kmh NNE 13.0 mph20.9 kmh 30.09 in1019.0 mb 0.00 in0.0 mm 0.00 in0.0 mm 0.16 in4.1 mm
09:35 AM 51.1°F10.6°C 42.1°F5.6°C 71% 2.4 mph NNE3.9 kmh NNE 13.0 mph20.9 kmh 30.09 in1019.0 mb 0.00 in0.0 mm 0.00 in0.0 mm 0.16 in4.1 mm
09:40 AM 51.5°F10.8°C 42.5°F5.8°C 71% 3.2 mph NNE5.1 kmh NNE 13.0 mph20.9 kmh 30.08 in1018.6 mb 0.00 in0.0 mm 0.00 in0.0 mm 0.16 in4.1 mm
09:45 AM 51.7°F10.9°C 42.0°F5.6°C 69% 5.3 mph NNE8.5 kmh NNE 12.0 mph19.3 kmh 30.08 in1018.6 mb 0.00 in0.0 mm 0.00 in0.0 mm 0.16 in4.1 mm
09:49 AM 52.0°F11.1°C 42.1°F5.6°C 69% 4.8 mph NNE7.7 kmh NNE 13.0 mph20.9 kmh 30.08 in1018.6 mb 0.00 in0.0 mm 0.00 in0.0 mm 0.16 in4.1 mm
09:54 AM 52.3°F11.3°C 42.2°F5.7°C 68% 5.3 mph N8.5 kmh N 16.0 mph25.7 kmh 30.08 in1018.6 mb 0.00 in0.0 mm 0.00 in0.0 mm 0.16 in4.1 mm
09:59 AM 52.6°F11.4°C 42.1°F5.6°C 67% 4.7 mph NNE7.6 kmh NNE 16.0 mph25.7 kmh 30.09 in1019.0 mb 0.00 in0.0 mm 0.00 in0.0 mm 0.16 in4.1 mm
10:04 AM 52.9°F11.6°C 41.8°F5.4°C 66% 4.1 mph NE6.6 kmh NE 16.0 mph25.7 kmh 30.09 in1019.0 mb 0.00 in0.0 mm 0.00 in0.0 mm 0.16 in4.1 mm
10:09 AM 53.2°F11.8°C 41.9°F5.5°C 65% 4.7 mph NNE7.6 kmh NNE 16.0 mph25.7 kmh 30.09 in1019.0 mb 0.00 in0.0 mm 0.00 in0.0 mm 0.16 in4.1 mm
10:14 AM 53.5°F11.9°C 42.1°F5.6°C 65% 2.5 mph NNE4.0 kmh NNE 15.0 mph24.1 kmh 30.09 in1019.0 mb 0.00 in0.0 mm 0.00 in0.0 mm 0.16 in4.1 mm
10:19 AM 53.7°F12.1°C 41.5°F5.3°C 63% 6.7 mph NE10.8 kmh NE 16.0 mph25.7 kmh 30.09 in1019.0 mb 0.00 in0.0 mm 0.00 in0.0 mm 0.16 in4.1 mm
10:24 AM 53.9°F12.2°C 40.9°F4.9°C 61% 5.0 mph NE8.0 kmh NE 19.0 mph30.6 kmh 30.09 in1019.0 mb 0.00 in0.0 mm 0.00 in0.0 mm 0.16 in4.1 mm
10:29 AM 54.2°F12.3°C 40.2°F4.6°C 59% 7.2 mph NNE11.6 kmh NNE 19.0 mph30.6 kmh 30.09 in1019.0 mb 0.00 in0.0 mm 0.00 in0.0 mm 0.16 in4.1 mm
10:34 AM 54.4°F12.4°C 40.5°F4.7°C 59% 5.5 mph NE8.9 kmh NE 19.0 mph30.6 kmh 30.09 in1019.0 mb 0.00 in0.0 mm 0.00 in0.0 mm 0.16 in4.1 mm
10:39 AM 54.7°F12.6°C 41.2°F5.1°C 60% 3.6 mph NE5.8 kmh NE 18.0 mph29.0 kmh 30.09 in1019.0 mb 0.00 in0.0 mm 0.00 in0.0 mm 0.16 in4.1 mm
10:44 AM 54.9°F12.7°C 40.5°F4.7°C 58% 5.8 mph NE9.3 kmh NE 16.0 mph25.7 kmh 30.09 in1019.0 mb 0.00 in0.0 mm 0.00 in0.0 mm 0.16 in4.1 mm
10:49 AM 54.9°F12.7°C 40.0°F4.4°C 57% 7.8 mph NE12.6 kmh NE 17.0 mph27.4 kmh 30.09 in1019.0 mb 0.00 in0.0 mm 0.00 in0.0 mm 0.16 in4.1 mm
10:54 AM 54.9°F12.7°C 39.6°F4.2°C 56% 7.1 mph NE11.4 kmh NE 17.0 mph27.4 kmh 30.09 in1019.0 mb 0.00 in0.0 mm 0.00 in0.0 mm 0.16 in4.1 mm
10:59 AM 54.9°F12.7°C 40.0°F4.4°C 57% 5.2 mph NE8.4 kmh NE 18.0 mph29.0 kmh 30.09 in1019.0 mb 0.00 in0.0 mm 0.00 in0.0 mm 0.16 in4.1 mm
11:04 AM 55.2°F12.9°C 40.8°F4.9°C 58% 2.4 mph N3.9 kmh N 18.0 mph29.0 kmh 30.09 in1019.0 mb 0.00 in0.0 mm 0.00 in0.0 mm 0.16 in4.1 mm
11:09 AM 55.5°F13.1°C 40.1°F4.5°C 56% 5.7 mph N9.2 kmh N 18.0 mph29.0 kmh 30.10 in1019.3 mb 0.00 in0.0 mm 0.00 in0.0 mm 0.16 in4.1 mm
11:14 AM 55.5°F13.1°C 40.6°F4.8°C 57% 7.0 mph NE11.3 kmh NE 20.0 mph32.2 kmh 30.09 in1019.0 mb 0.00 in0.0 mm 0.00 in0.0 mm 0.16 in4.1 mm
11:19 AM 55.3°F12.9°C 39.9°F4.4°C 56% 6.8 mph NNE10.9 kmh NNE 20.0 mph32.2 kmh 30.09 in1019.0 mb 0.00 in0.0 mm 0.00 in0.0 mm 0.16 in4.1 mm
11:24 AM 55.6°F13.1°C 41.1°F5.1°C 58% 4.1 mph NE6.6 kmh NE 20.0 mph32.2 kmh 30.09 in1019.0 mb 0.00 in0.0 mm 0.00 in0.0 mm 0.16 in4.1 mm
11:29 AM 55.5°F13.1°C 40.0°F4.4°C 56% 10.1 mph NE16.3 kmh NE 17.0 mph27.4 kmh 30.09 in1019.0 mb 0.00 in0.0 mm 0.00 in0.0 mm 0.16 in4.1 mm
11:34 AM 55.7°F13.2°C 40.8°F4.9°C 57% 6.9 mph NE11.1 kmh NE 17.0 mph27.4 kmh 30.08 in1018.6 mb 0.00 in0.0 mm 0.00 in0.0 mm 0.16 in4.1 mm
11:39 AM 55.9°F13.3°C 41.4°F5.2°C 58% 4.5 mph NE7.2 kmh NE 17.0 mph27.4 kmh 30.08 in1018.6 mb 0.00 in0.0 mm 0.00 in0.0 mm 0.16 in4.1 mm
11:44 AM 56.2°F13.4°C 41.7°F5.4°C 58% 4.3 mph NE6.9 kmh NE 16.0 mph25.7 kmh 30.08 in1018.6 mb 0.00 in0.0 mm 0.00 in0.0 mm 0.16 in4.1 mm
11:49 AM 56.3°F13.5°C 41.3°F5.2°C 57% 5.4 mph NNE8.7 kmh NNE 13.0 mph20.9 kmh 30.08 in1018.6 mb 0.00 in0.0 mm 0.00 in0.0 mm 0.16 in4.1 mm
11:54 AM 56.5°F13.6°C 42.0°F5.6°C 58% 4.2 mph NNE6.8 kmh NNE 13.0 mph20.9 kmh 30.08 in1018.6 mb 0.00 in0.0 mm 0.00 in0.0 mm 0.16 in4.1 mm
11:59 AM 56.6°F13.7°C 42.1°F5.6°C 58% 5.0 mph NNE8.0 kmh NNE 14.0 mph22.5 kmh 30.08 in1018.6 mb 0.00 in0.0 mm 0.00 in0.0 mm 0.16 in4.1 mm
12:04 PM 56.6°F13.7°C 42.0°F5.6°C 58% 6.3 mph NE10.1 kmh NE 14.0 mph22.5 kmh 30.07 in1018.3 mb 0.00 in0.0 mm 0.00 in0.0 mm 0.16 in4.1 mm
12:09 PM 56.9°F13.8°C 43.2°F6.2°C 60% 4.2 mph NE6.8 kmh NE 14.0 mph22.5 kmh 30.07 in1018.3 mb 0.00 in0.0 mm 0.00 in0.0 mm 0.16 in4.1 mm
12:14 PM 57.0°F13.9°C 42.4°F5.8°C 58% 8.0 mph NE12.9 kmh NE 15.0 mph24.1 kmh 30.07 in1018.3 mb 0.00 in0.0 mm 0.00 in0.0 mm 0.16 in4.1 mm
12:19 PM 57.2°F14.0°C 42.7°F5.9°C 58% 7.1 mph NE11.4 kmh NE 16.0 mph25.7 kmh 30.06 in1017.9 mb 0.00 in0.0 mm 0.00 in0.0 mm 0.16 in4.1 mm
12:24 PM 57.4°F14.1°C 42.8°F6.0°C 58% 5.4 mph NNE8.7 kmh NNE 16.0 mph25.7 kmh 30.06 in1017.9 mb 0.00 in0.0 mm 0.00 in0.0 mm 0.16 in4.1 mm
12:30 PM 57.5°F14.2°C 42.9°F6.1°C 58% 5.8 mph NE9.3 kmh NE 16.0 mph25.7 kmh 30.06 in1017.9 mb 0.00 in0.0 mm 0.00 in0.0 mm 0.16 in4.1 mm
12:35 PM 57.6°F14.2°C 43.0°F6.1°C 58% 3.7 mph NNE6.0 kmh NNE 16.0 mph25.7 kmh 30.06 in1017.9 mb 0.00 in0.0 mm 0.00 in0.0 mm 0.16 in4.1 mm
12:40 PM 57.5°F14.2°C 43.8°F6.6°C 60% 7.1 mph NE11.4 kmh NE 18.0 mph29.0 kmh 30.05 in1017.6 mb 0.00 in0.0 mm 0.00 in0.0 mm 0.16 in4.1 mm
12:45 PM 57.5°F14.2°C 44.7°F7.1°C 62% 7.6 mph NE12.2 kmh NE 19.0 mph30.6 kmh 30.05 in1017.6 mb 0.00 in0.0 mm 0.00 in0.0 mm 0.16 in4.1 mm
12:49 PM 57.9°F14.4°C 45.1°F7.3°C 62% 3.4 mph NNE5.5 kmh NNE 19.0 mph30.6 kmh 30.05 in1017.6 mb 0.00 in0.0 mm 0.00 in0.0 mm 0.16 in4.1 mm
12:54 PM 58.4°F14.7°C 45.6°F7.6°C 62% 6.9 mph NE11.1 kmh NE 19.0 mph30.6 kmh 30.05 in1017.6 mb 0.00 in0.0 mm 0.00 in0.0 mm 0.16 in4.1 mm
01:00 PM 58.2°F14.6°C 45.8°F7.7°C 63% 4.7 mph NE7.6 kmh NE 17.0 mph27.4 kmh 30.04 in1017.3 mb 0.00 in0.0 mm 0.00 in0.0 mm 0.16 in4.1 mm
01:05 PM 58.1°F14.5°C 45.3°F7.4°C 62% 9.4 mph NE15.1 kmh NE 14.0 mph22.5 kmh 30.04 in1017.3 mb 0.00 in0.0 mm 0.00 in0.0 mm 0.16 in4.1 mm
01:10 PM 58.0°F14.4°C 45.6°F7.6°C 63% 6.4 mph NE10.3 kmh NE 14.0 mph22.5 kmh 30.04 in1017.3 mb 0.00 in0.0 mm 0.00 in0.0 mm 0.16 in4.1 mm
01:15 PM 58.2°F14.6°C 45.8°F7.7°C 63% 9.9 mph NE15.9 kmh NE 15.0 mph24.1 kmh 30.04 in1017.3 mb 0.00 in0.0 mm 0.00 in0.0 mm 0.16 in4.1 mm
01:20 PM 58.0°F14.4°C 46.0°F7.8°C 64% 9.1 mph NE14.6 kmh NE 15.0 mph24.1 kmh 30.04 in1017.3 mb 0.00 in0.0 mm 0.00 in0.0 mm 0.16 in4.1 mm
01:25 PM 58.3°F14.6°C 46.7°F8.2°C 65% 8.2 mph NE13.2 kmh NE 15.0 mph24.1 kmh 30.04 in1017.3 mb 0.00 in0.0 mm 0.00 in0.0 mm 0.16 in4.1 mm
01:30 PM 58.2°F14.6°C 46.2°F7.9°C 64% 6.4 mph NE10.3 kmh NE 16.0 mph25.7 kmh 30.04 in1017.3 mb 0.00 in0.0 mm 0.00 in0.0 mm 0.16 in4.1 mm
01:35 PM 58.4°F14.7°C 46.4°F8.0°C 64% 3.0 mph NE4.8 kmh NE 16.0 mph25.7 kmh 30.03 in1016.9 mb 0.00 in0.0 mm 0.00 in0.0 mm 0.16 in4.1 mm
01:40 PM 59.1°F15.1°C 47.1°F8.4°C 64% 3.2 mph NE5.1 kmh NE 16.0 mph25.7 kmh 30.03 in1016.9 mb 0.00 in0.0 mm 0.00 in0.0 mm 0.16 in4.1 mm
01:45 PM 59.9°F15.5°C 46.6°F8.1°C 61% 4.5 mph NNE7.2 kmh NNE 16.0 mph25.7 kmh 30.03 in1016.9 mb 0.00 in0.0 mm 0.00 in0.0 mm 0.16 in4.1 mm
01:50 PM 59.8°F15.4°C 46.9°F8.3°C 62% 5.6 mph NE9.0 kmh NE 14.0 mph22.5 kmh 30.03 in1016.9 mb 0.00 in0.0 mm 0.00 in0.0 mm 0.16 in4.1 mm
01:55 PM 60.0°F15.6°C 46.6°F8.1°C 61% 3.7 mph NNE6.0 kmh NNE 14.0 mph22.5 kmh 30.03 in1016.9 mb 0.00 in0.0 mm 0.00 in0.0 mm 0.16 in4.1 mm
02:00 PM 60.3°F15.7°C 47.4°F8.6°C 62% 2.5 mph N4.0 kmh N 14.0 mph22.5 kmh 30.03 in1016.9 mb 0.00 in0.0 mm 0.00 in0.0 mm 0.16 in4.1 mm
02:05 PM 60.7°F15.9°C 47.3°F8.5°C 61% 3.0 mph NE4.8 kmh NE 14.0 mph22.5 kmh 30.03 in1016.9 mb 0.00 in0.0 mm 0.00 in0.0 mm 0.16 in4.1 mm
02:10 PM 61.0°F16.1°C 47.6°F8.7°C 61% 5.3 mph NE8.5 kmh NE 9.0 mph14.5 kmh 30.03 in1016.9 mb 0.00 in0.0 mm 0.00 in0.0 mm 0.16 in4.1 mm
02:15 PM 60.8°F16.0°C 48.3°F9.1°C 63% 3.0 mph NE4.8 kmh NE 9.0 mph14.5 kmh 30.03 in1016.9 mb 0.00 in0.0 mm 0.00 in0.0 mm 0.16 in4.1 mm
02:20 PM 60.5°F15.8°C 47.4°F8.6°C 62% 7.0 mph NE11.3 kmh NE 13.0 mph20.9 kmh 30.03 in1016.9 mb 0.00 in0.0 mm 0.00 in0.0 mm 0.16 in4.1 mm
02:25 PM 60.5°F15.8°C 47.8°F8.8°C 63% 2.2 mph NNE3.5 kmh NNE 13.0 mph20.9 kmh 30.02 in1016.6 mb 0.00 in0.0 mm 0.00 in0.0 mm 0.16 in4.1 mm
02:30 PM 60.7°F15.9°C 47.7°F8.7°C 62% 2.0 mph NW3.2 kmh NW 13.0 mph20.9 kmh 30.02 in1016.6 mb 0.00 in0.0 mm 0.00 in0.0 mm 0.16 in4.1 mm
02:35 PM 60.7°F15.9°C 48.2°F9.0°C 63% 2.4 mph NNE3.9 kmh NNE 13.0 mph20.9 kmh 30.02 in1016.6 mb 0.00 in0.0 mm 0.00 in0.0 mm 0.16 in4.1 mm
02:40 PM 60.7°F15.9°C 48.2°F9.0°C 63% 3.2 mph NE5.1 kmh NE 10.0 mph16.1 kmh 30.02 in1016.6 mb 0.00 in0.0 mm 0.00 in0.0 mm 0.16 in4.1 mm
02:45 PM 60.7°F15.9°C 48.2°F9.0°C 63% 3.5 mph NE5.6 kmh NE 7.0 mph11.3 kmh 30.02 in1016.6 mb 0.00 in0.0 mm 0.00 in0.0 mm 0.16 in4.1 mm
02:49 PM 60.7°F15.9°C 48.2°F9.0°C 63% 4.1 mph NE6.6 kmh NE 7.0 mph11.3 kmh 30.02 in1016.6 mb 0.00 in0.0 mm 0.00 in0.0 mm 0.16 in4.1 mm
02:54 PM 60.9°F16.1°C 48.4°F9.1°C 63% 3.0 mph NNE4.8 kmh NNE 8.0 mph12.9 kmh 30.02 in1016.6 mb 0.00 in0.0 mm 0.00 in0.0 mm 0.16 in4.1 mm
02:59 PM 60.9°F16.1°C 47.9°F8.8°C 62% 3.0 mph NE4.8 kmh NE 8.0 mph12.9 kmh 30.02 in1016.6 mb 0.00 in0.0 mm 0.00 in0.0 mm 0.16 in4.1 mm
03:04 PM 60.9°F16.1°C 48.4°F9.1°C 63% 4.0 mph NE6.4 kmh NE 10.0 mph16.1 kmh 30.02 in1016.6 mb 0.00 in0.0 mm 0.00 in0.0 mm 0.16 in4.1 mm
03:09 PM 61.0°F16.1°C 48.0°F8.9°C 62% 4.4 mph NNE7.1 kmh NNE 10.0 mph16.1 kmh 30.02 in1016.6 mb 0.00 in0.0 mm 0.00 in0.0 mm 0.16 in4.1 mm
03:14 PM 60.8°F16.0°C 47.8°F8.8°C 62% 8.1 mph NE13.0 kmh NE 13.0 mph20.9 kmh 30.02 in1016.6 mb 0.00 in0.0 mm 0.00 in0.0 mm 0.16 in4.1 mm
03:19 PM 60.8°F16.0°C 48.3°F9.1°C 63% 4.7 mph NE7.6 kmh NE 13.0 mph20.9 kmh 30.02 in1016.6 mb 0.00 in0.0 mm 0.00 in0.0 mm 0.16 in4.1 mm
03:24 PM 60.8°F16.0°C 48.3°F9.1°C 63% 3.4 mph NE5.5 kmh NE 13.0 mph20.9 kmh 30.02 in1016.6 mb 0.00 in0.0 mm 0.00 in0.0 mm 0.16 in4.1 mm
03:29 PM 60.9°F16.1°C 48.4°F9.1°C 63% 2.6 mph NE4.2 kmh NE 13.0 mph20.9 kmh 30.02 in1016.6 mb 0.00 in0.0 mm 0.00 in0.0 mm 0.16 in4.1 mm
03:34 PM 60.9°F16.1°C 48.4°F9.1°C 63% 2.2 mph NE3.5 kmh NE 12.0 mph19.3 kmh 30.02 in1016.6 mb 0.00 in0.0 mm 0.00 in0.0 mm 0.16 in4.1 mm
03:39 PM 60.9°F16.1°C 47.9°F8.8°C 62% 4.6 mph NE7.4 kmh NE 10.0 mph16.1 kmh 30.02 in1016.6 mb 0.00 in0.0 mm 0.00 in0.0 mm 0.16 in4.1 mm
03:44 PM 60.9°F16.1°C 48.4°F9.1°C 63% 4.2 mph NE6.8 kmh NE 9.0 mph14.5 kmh 30.02 in1016.6 mb 0.00 in0.0 mm 0.00 in0.0 mm 0.16 in4.1 mm
03:49 PM 60.9°F16.1°C 48.8°F9.3°C 64% 2.9 mph NE4.7 kmh NE 9.0 mph14.5 kmh 30.02 in1016.6 mb 0.00 in0.0 mm 0.00 in0.0 mm 0.16 in4.1 mm
03:54 PM 60.9°F16.1°C 48.8°F9.3°C 64% 1.7 mph NNE2.7 kmh NNE 9.0 mph14.5 kmh 30.02 in1016.6 mb 0.00 in0.0 mm 0.00 in0.0 mm 0.16 in4.1 mm
03:59 PM 60.8°F16.0°C 48.7°F9.3°C 64% 3.5 mph NE5.6 kmh NE 11.0 mph17.7 kmh 30.02 in1016.6 mb 0.00 in0.0 mm 0.00 in0.0 mm 0.16 in4.1 mm
04:04 PM 60.7°F15.9°C 47.7°F8.7°C 62% 4.6 mph NE7.4 kmh NE 11.0 mph17.7 kmh 30.03 in1016.9 mb 0.00 in0.0 mm 0.00 in0.0 mm 0.16 in4.1 mm
04:09 PM 60.5°F15.8°C 48.0°F8.9°C 63% 3.8 mph NE6.1 kmh NE 11.0 mph17.7 kmh 30.03 in1016.9 mb 0.00 in0.0 mm 0.00 in0.0 mm 0.16 in4.1 mm
04:14 PM 60.5°F15.8°C 48.4°F9.1°C 64% 2.0 mph NNE3.2 kmh NNE 11.0 mph17.7 kmh 30.03 in1016.9 mb 0.00 in0.0 mm 0.00 in0.0 mm 0.16 in4.1 mm
04:19 PM 60.4°F15.8°C 48.3°F9.1°C 64% 2.9 mph NE4.7 kmh NE 9.0 mph14.5 kmh 30.03 in1016.9 mb 0.00 in0.0 mm 0.00 in0.0 mm 0.16 in4.1 mm
04:24 PM 60.4°F15.8°C 48.3°F9.1°C 64% 2.5 mph N4.0 kmh N 9.0 mph14.5 kmh 30.03 in1016.9 mb 0.00 in0.0 mm 0.00 in0.0 mm 0.16 in4.1 mm
04:29 PM 60.4°F15.8°C 48.7°F9.3°C 65% 2.0 mph NE3.2 kmh NE 7.0 mph11.3 kmh 30.03 in1016.9 mb 0.00 in0.0 mm 0.00 in0.0 mm 0.16 in4.1 mm
04:34 PM 60.3°F15.7°C 48.6°F9.2°C 65% 2.0 mph NE3.2 kmh NE 6.0 mph9.7 kmh 30.03 in1016.9 mb 0.00 in0.0 mm 0.00 in0.0 mm 0.16 in4.1 mm
04:39 PM 60.2°F15.7°C 48.5°F9.2°C 65% 1.8 mph NE2.9 kmh NE 7.0 mph11.3 kmh 30.03 in1016.9 mb 0.00 in0.0 mm 0.00 in0.0 mm 0.16 in4.1 mm
04:44 PM 60.1°F15.6°C 48.4°F9.1°C 65% 2.2 mph NE3.5 kmh NE 7.0 mph11.3 kmh 30.03 in1016.9 mb 0.00 in0.0 mm 0.00 in0.0 mm 0.16 in4.1 mm
04:49 PM 60.0°F15.6°C 48.8°F9.3°C 66% 2.7 mph NE4.3 kmh NE 7.0 mph11.3 kmh 30.03 in1016.9 mb 0.00 in0.0 mm 0.00 in0.0 mm 0.16 in4.1 mm
04:54 PM 59.9°F15.5°C 48.1°F8.9°C 65% 3.1 mph NE5.0 kmh NE 6.0 mph9.7 kmh 30.03 in1016.9 mb 0.00 in0.0 mm 0.00 in0.0 mm 0.16 in4.1 mm
04:59 PM 59.8°F15.4°C 48.4°F9.1°C 66% 2.3 mph NE3.7 kmh NE 6.0 mph9.7 kmh 30.03 in1016.9 mb 0.00 in0.0 mm 0.00 in0.0 mm 0.16 in4.1 mm
05:04 PM 59.7°F15.4°C 48.3°F9.1°C 66% 2.3 mph N3.7 kmh N 6.0 mph9.7 kmh 30.03 in1016.9 mb 0.00 in0.0 mm 0.00 in0.0 mm 0.16 in4.1 mm
05:09 PM 59.7°F15.4°C 48.3°F9.1°C 66% 1.1 mph NNE1.8 kmh NNE 6.0 mph9.7 kmh 30.03 in1016.9 mb 0.00 in0.0 mm 0.00 in0.0 mm 0.16 in4.1 mm
05:14 PM 59.6°F15.3°C 48.6°F9.2°C 67% 1.5 mph NNE2.4 kmh NNE 5.0 mph8.0 kmh 30.03 in1016.9 mb 0.00 in0.0 mm 0.00 in0.0 mm 0.16 in4.1 mm
05:19 PM 59.5°F15.3°C 48.5°F9.2°C 67% 1.0 mph NE1.6 kmh NE 5.0 mph8.0 kmh 30.03 in1016.9 mb 0.00 in0.0 mm 0.00 in0.0 mm 0.16 in4.1 mm
05:24 PM 59.4°F15.2°C 48.4°F9.1°C 67% 2.6 mph NE4.2 kmh NE 4.0 mph6.4 kmh 30.03 in1016.9 mb 0.00 in0.0 mm 0.00 in0.0 mm 0.16 in4.1 mm
05:29 PM 59.3°F15.2°C 48.7°F9.3°C 68% 1.5 mph NE2.4 kmh NE 4.0 mph6.4 kmh 30.04 in1017.3 mb 0.00 in0.0 mm 0.00 in0.0 mm 0.16 in4.1 mm
05:34 PM 59.2°F15.1°C 48.6°F9.2°C 68% 1.3 mph NE2.1 kmh NE 4.0 mph6.4 kmh 30.04 in1017.3 mb 0.00 in0.0 mm 0.00 in0.0 mm 0.16 in4.1 mm
05:39 PM 59.1°F15.1°C 48.5°F9.2°C 68% 1.5 mph NE2.4 kmh NE 4.0 mph6.4 kmh 30.04 in1017.3 mb 0.00 in0.0 mm 0.00 in0.0 mm 0.16 in4.1 mm
05:44 PM 59.0°F15.0°C 48.6°F9.2°C 68% 2.0 mph NE3.2 kmh NE 3.0 mph4.8 kmh 30.04 in1017.3 mb 0.00 in0.0 mm 0.00 in0.0 mm 0.16 in4.1 mm
05:49 PM 58.9°F14.9°C 48.9°F9.4°C 69% 1.5 mph NNE2.4 kmh NNE 3.0 mph4.8 kmh 30.04 in1017.3 mb 0.00 in0.0 mm 0.00 in0.0 mm 0.16 in4.1 mm
05:54 PM 58.8°F14.9°C 48.4°F9.1°C 68% 1.8 mph N2.9 kmh N 4.0 mph6.4 kmh 30.04 in1017.3 mb 0.00 in0.0 mm 0.00 in0.0 mm 0.16 in4.1 mm
05:59 PM 58.8°F14.9°C 48.4°F9.1°C 68% 2.1 mph NE3.4 kmh NE 4.0 mph6.4 kmh 30.04 in1017.3 mb 0.00 in0.0 mm 0.00 in0.0 mm 0.16 in4.1 mm
06:04 PM 58.8°F14.9°C 48.0°F8.9°C 67% 3.4 mph NE5.5 kmh NE 6.0 mph9.7 kmh 30.04 in1017.3 mb 0.00 in0.0 mm 0.00 in0.0 mm 0.16 in4.1 mm
06:09 PM 58.7°F14.8°C 48.3°F9.1°C 68% 1.9 mph NE3.1 kmh NE 6.0 mph9.7 kmh 30.04 in1017.3 mb 0.00 in0.0 mm 0.00 in0.0 mm 0.16 in4.1 mm
06:14 PM 58.7°F14.8°C 47.9°F8.8°C 67% 2.5 mph ENE4.0 kmh ENE 6.0 mph9.7 kmh 30.04 in1017.3 mb 0.00 in0.0 mm 0.00 in0.0 mm 0.16 in4.1 mm
06:19 PM 58.7°F14.8°C 47.9°F8.8°C 67% 3.4 mph NE5.5 kmh NE 6.0 mph9.7 kmh 30.04 in1017.3 mb 0.00 in0.0 mm 0.00 in0.0 mm 0.16 in4.1 mm
06:24 PM 58.6°F14.8°C 47.4°F8.6°C 66% 3.1 mph NE5.0 kmh NE 8.0 mph12.9 kmh 30.04 in1017.3 mb 0.00 in0.0 mm 0.00 in0.0 mm 0.16 in4.1 mm
06:29 PM 58.5°F14.7°C 47.3°F8.5°C 66% 3.6 mph NE5.8 kmh NE 8.0 mph12.9 kmh 30.04 in1017.3 mb 0.00 in0.0 mm 0.00 in0.0 mm 0.16 in4.1 mm
06:34 PM 58.4°F14.7°C 47.2°F8.4°C 66% 3.1 mph NE5.0 kmh NE 8.0 mph12.9 kmh 30.05 in1017.6 mb 0.00 in0.0 mm 0.00 in0.0 mm 0.16 in4.1 mm
06:39 PM 58.2°F14.6°C 47.4°F8.6°C 67% 2.2 mph NE3.5 kmh NE 8.0 mph12.9 kmh 30.05 in1017.6 mb 0.00 in0.0 mm 0.00 in0.0 mm 0.16 in4.1 mm
06:44 PM 58.2°F14.6°C 47.4°F8.6°C 67% 1.9 mph NE3.1 kmh NE 6.0 mph9.7 kmh 30.05 in1017.6 mb 0.00 in0.0 mm 0.00 in0.0 mm 0.16 in4.1 mm
06:49 PM 58.1°F14.5°C 46.9°F8.3°C 66% 2.3 mph NE3.7 kmh NE 6.0 mph9.7 kmh 30.05 in1017.6 mb 0.00 in0.0 mm 0.00 in0.0 mm 0.16 in4.1 mm
06:54 PM 58.0°F14.4°C 46.8°F8.2°C 66% 1.6 mph NE2.6 kmh NE 6.0 mph9.7 kmh 30.05 in1017.6 mb 0.00 in0.0 mm 0.00 in0.0 mm 0.16 in4.1 mm
06:59 PM 58.0°F14.4°C 47.2°F8.4°C 67% 1.8 mph NE2.9 kmh NE 6.0 mph9.7 kmh 30.05 in1017.6 mb 0.00 in0.0 mm 0.00 in0.0 mm 0.16 in4.1 mm
07:04 PM 57.9°F14.4°C 47.1°F8.4°C 67% 1.3 mph NE2.1 kmh NE 6.0 mph9.7 kmh 30.05 in1017.6 mb 0.00 in0.0 mm 0.00 in0.0 mm 0.16 in4.1 mm
07:09 PM 57.8°F14.3°C 47.8°F8.8°C 69% 1.0 mph NE1.6 kmh NE 5.0 mph8.0 kmh 30.05 in1017.6 mb 0.00 in0.0 mm 0.00 in0.0 mm 0.16 in4.1 mm
07:14 PM 57.6°F14.2°C 47.6°F8.7°C 69% 1.0 mph NE1.6 kmh NE 5.0 mph8.0 kmh 30.05 in1017.6 mb 0.00 in0.0 mm 0.00 in0.0 mm 0.16 in4.1 mm
07:19 PM 57.6°F14.2°C 47.6°F8.7°C 69% 1.0 mph NE1.6 kmh NE 3.0 mph4.8 kmh 30.05 in1017.6 mb 0.00 in0.0 mm 0.00 in0.0 mm 0.16 in4.1 mm
07:24 PM 57.5°F14.2°C 47.5°F8.6°C 69% 1.4 mph ENE2.3 kmh ENE 3.0 mph4.8 kmh 30.06 in1017.9 mb 0.00 in0.0 mm 0.00 in0.0 mm 0.16 in4.1 mm
07:29 PM 57.4°F14.1°C 47.4°F8.6°C 69% 1.7 mph NE2.7 kmh NE 4.0 mph6.4 kmh 30.06 in1017.9 mb 0.00 in0.0 mm 0.00 in0.0 mm 0.16 in4.1 mm
07:34 PM 57.4°F14.1°C 47.4°F8.6°C 69% 2.2 mph NE3.5 kmh NE 4.0 mph6.4 kmh 30.06 in1017.9 mb 0.00 in0.0 mm 0.00 in0.0 mm 0.16 in4.1 mm
07:39 PM 57.3°F14.1°C 47.3°F8.5°C 69% 1.9 mph NE3.1 kmh NE 4.0 mph6.4 kmh 30.06 in1017.9 mb 0.00 in0.0 mm 0.00 in0.0 mm 0.16 in4.1 mm
07:44 PM 57.2°F14.0°C 47.3°F8.5°C 69% 2.2 mph NE3.5 kmh NE 4.0 mph6.4 kmh 30.06 in1017.9 mb 0.00 in0.0 mm 0.00 in0.0 mm 0.16 in4.1 mm
07:48 PM 57.1°F13.9°C 47.2°F8.4°C 69% 1.7 mph NE2.7 kmh NE 4.0 mph6.4 kmh 30.06 in1017.9 mb 0.00 in0.0 mm 0.00 in0.0 mm 0.16 in4.1 mm
07:53 PM 57.0°F13.9°C 47.4°F8.6°C 70% 1.7 mph NE2.7 kmh NE 4.0 mph6.4 kmh 30.06 in1017.9 mb 0.00 in0.0 mm 0.00 in0.0 mm 0.16 in4.1 mm
07:58 PM 56.9°F13.8°C 47.3°F8.5°C 70% 2.3 mph NE3.7 kmh NE 5.0 mph8.0 kmh 30.07 in1018.3 mb 0.00 in0.0 mm 0.00 in0.0 mm 0.16 in4.1 mm
08:03 PM 56.9°F13.8°C 47.3°F8.5°C 70% 3.2 mph NE5.1 kmh NE 6.0 mph9.7 kmh 30.07 in1018.3 mb 0.00 in0.0 mm 0.00 in0.0 mm 0.16 in4.1 mm
08:08 PM 56.9°F13.8°C 47.3°F8.5°C 70% 2.6 mph NE4.2 kmh NE 6.0 mph9.7 kmh 30.07 in1018.3 mb 0.00 in0.0 mm 0.00 in0.0 mm 0.16 in4.1 mm
08:13 PM 56.8°F13.8°C 47.2°F8.4°C 70% 2.6 mph NE4.2 kmh NE 7.0 mph11.3 kmh 30.07 in1018.3 mb 0.00 in0.0 mm 0.00 in0.0 mm 0.16 in4.1 mm
08:18 PM 56.6°F13.7°C 46.5°F8.1°C 69% 5.1 mph NE8.2 kmh NE 8.0 mph12.9 kmh 30.07 in1018.3 mb 0.00 in0.0 mm 0.00 in0.0 mm 0.16 in4.1 mm
08:23 PM 56.5°F13.6°C 46.8°F8.2°C 70% 4.1 mph NE6.6 kmh NE 8.0 mph12.9 kmh 30.07 in1018.3 mb 0.00 in0.0 mm 0.00 in0.0 mm 0.16 in4.1 mm
08:28 PM 56.2°F13.4°C 46.7°F8.2°C 70% 3.5 mph NE5.6 kmh NE 8.0 mph12.9 kmh 30.07 in1018.3 mb 0.00 in0.0 mm 0.00 in0.0 mm 0.16 in4.1 mm
08:33 PM 56.0°F13.3°C 47.2°F8.4°C 72% 1.9 mph NE3.1 kmh NE 8.0 mph12.9 kmh 30.08 in1018.6 mb 0.00 in0.0 mm 0.00 in0.0 mm 0.16 in4.1 mm
08:38 PM 55.7°F13.2°C 46.9°F8.3°C 72% 3.0 mph NE4.8 kmh NE 7.0 mph11.3 kmh 30.08 in1018.6 mb 0.00 in0.0 mm 0.00 in0.0 mm 0.16 in4.1 mm
08:43 PM 55.5°F13.1°C 47.1°F8.4°C 73% 2.1 mph NE3.4 kmh NE 5.0 mph8.0 kmh 30.08 in1018.6 mb 0.00 in0.0 mm 0.00 in0.0 mm 0.16 in4.1 mm
08:48 PM 55.3°F12.9°C 46.8°F8.2°C 73% 1.7 mph NE2.7 kmh NE 5.0 mph8.0 kmh 30.08 in1018.6 mb 0.00 in0.0 mm 0.00 in0.0 mm 0.16 in4.1 mm
08:53 PM 55.2°F12.9°C 47.1°F8.4°C 74% 1.0 mph E1.6 kmh E 5.0 mph8.0 kmh 30.08 in1018.6 mb 0.00 in0.0 mm 0.00 in0.0 mm 0.16 in4.1 mm
08:58 PM 55.1°F12.8°C 47.1°F8.4°C 74% 1.0 mph NE1.6 kmh NE 3.0 mph4.8 kmh 30.08 in1018.6 mb 0.00 in0.0 mm 0.00 in0.0 mm 0.16 in4.1 mm
09:03 PM 55.0°F12.8°C 47.0°F8.3°C 74% 1.1 mph NE1.8 kmh NE 3.0 mph4.8 kmh 30.08 in1018.6 mb 0.00 in0.0 mm 0.00 in0.0 mm 0.16 in4.1 mm
09:08 PM 54.9°F12.7°C 46.9°F8.3°C 74% 2.0 mph ENE3.2 kmh ENE 3.0 mph4.8 kmh 30.08 in1018.6 mb 0.00 in0.0 mm 0.00 in0.0 mm 0.16 in4.1 mm
09:13 PM 54.9°F12.7°C 46.9°F8.3°C 74% 1.6 mph NE2.6 kmh NE 3.0 mph4.8 kmh 30.08 in1018.6 mb 0.00 in0.0 mm 0.00 in0.0 mm 0.16 in4.1 mm
09:18 PM 54.9°F12.7°C 46.4°F8.0°C 73% 2.1 mph ENE3.4 kmh ENE 4.0 mph6.4 kmh 30.09 in1019.0 mb 0.00 in0.0 mm 0.00 in0.0 mm 0.16 in4.1 mm
09:23 PM 54.9°F12.7°C 46.5°F8.1°C 73% 1.7 mph NE2.7 kmh NE 5.0 mph8.0 kmh 30.09 in1019.0 mb 0.00 in0.0 mm 0.00 in0.0 mm 0.16 in4.1 mm
09:28 PM 54.9°F12.7°C 46.5°F8.1°C 73% 1.7 mph NE2.7 kmh NE 5.0 mph8.0 kmh 30.09 in1019.0 mb 0.00 in0.0 mm 0.00 in0.0 mm 0.16 in4.1 mm
09:33 PM 54.8°F12.7°C 46.8°F8.2°C 74% 1.0 mph NNE1.6 kmh NNE 5.0 mph8.0 kmh 30.09 in1019.0 mb 0.00 in0.0 mm 0.00 in0.0 mm 0.16 in4.1 mm
09:38 PM 54.6°F12.6°C 46.6°F8.1°C 74% 1.6 mph N2.6 kmh N 5.0 mph8.0 kmh 30.09 in1019.0 mb 0.00 in0.0 mm 0.00 in0.0 mm 0.16 in4.1 mm
09:43 PM 54.5°F12.5°C 46.5°F8.1°C 74% 2.9 mph NE4.7 kmh NE 6.0 mph9.7 kmh 30.09 in1019.0 mb 0.00 in0.0 mm 0.00 in0.0 mm 0.16 in4.1 mm
09:48 PM 54.7°F12.6°C 46.0°F7.8°C 72% 3.7 mph NE6.0 kmh NE 6.0 mph9.7 kmh 30.09 in1019.0 mb 0.00 in0.0 mm 0.00 in0.0 mm 0.16 in4.1 mm
09:53 PM 54.9°F12.7°C 45.8°F7.7°C 71% 2.0 mph NE3.2 kmh NE 6.0 mph9.7 kmh 30.09 in1019.0 mb 0.00 in0.0 mm 0.00 in0.0 mm 0.16 in4.1 mm
09:58 PM 54.9°F12.7°C 45.7°F7.6°C 71% 1.9 mph NE3.1 kmh NE 6.0 mph9.7 kmh 30.08 in1018.6 mb 0.00 in0.0 mm 0.00 in0.0 mm 0.16 in4.1 mm
10:03 PM 54.8°F12.7°C 45.6°F7.6°C 71% 2.1 mph NE3.4 kmh NE 6.0 mph9.7 kmh 30.09 in1019.0 mb 0.00 in0.0 mm 0.00 in0.0 mm 0.16 in4.1 mm
10:08 PM 54.7°F12.6°C 45.5°F7.5°C 71% 2.5 mph NE4.0 kmh NE 5.0 mph8.0 kmh 30.08 in1018.6 mb 0.00 in0.0 mm 0.00 in0.0 mm 0.16 in4.1 mm
10:13 PM 54.7°F12.6°C 45.5°F7.5°C 71% 3.4 mph NE5.5 kmh NE 7.0 mph11.3 kmh 30.08 in1018.6 mb 0.00 in0.0 mm 0.00 in0.0 mm 0.16 in4.1 mm
10:18 PM 54.8°F12.7°C 44.9°F7.2°C 69% 3.0 mph NE4.8 kmh NE 7.0 mph11.3 kmh 30.08 in1018.6 mb 0.00 in0.0 mm 0.00 in0.0 mm 0.16 in4.1 mm
10:23 PM 54.9°F12.7°C 44.3°F6.8°C 67% 4.4 mph NE7.1 kmh NE 8.0 mph12.9 kmh 30.08 in1018.6 mb 0.00 in0.0 mm 0.00 in0.0 mm 0.16 in4.1 mm
10:28 PM 54.8°F12.7°C 44.6°F7.0°C 68% 1.9 mph NE3.1 kmh NE 8.0 mph12.9 kmh 30.08 in1018.6 mb 0.00 in0.0 mm 0.00 in0.0 mm 0.16 in4.1 mm
10:33 PM 54.6°F12.6°C 44.8°F7.1°C 69% 4.2 mph NE6.8 kmh NE 8.0 mph12.9 kmh 30.08 in1018.6 mb 0.00 in0.0 mm 0.00 in0.0 mm 0.16 in4.1 mm
10:38 PM 54.4°F12.4°C 45.3°F7.4°C 71% 1.4 mph NE2.3 kmh NE 8.0 mph12.9 kmh 30.08 in1018.6 mb 0.00 in0.0 mm 0.00 in0.0 mm 0.16 in4.1 mm
10:43 PM 54.2°F12.3°C 45.1°F7.3°C 71% 2.9 mph NE4.7 kmh NE 8.0 mph12.9 kmh 30.08 in1018.6 mb 0.00 in0.0 mm 0.00 in0.0 mm 0.16 in4.1 mm
10:48 PM 54.1°F12.3°C 44.6°F7.0°C 70% 4.1 mph NE6.6 kmh NE 7.0 mph11.3 kmh 30.08 in1018.6 mb 0.00 in0.0 mm 0.00 in0.0 mm 0.16 in4.1 mm
10:53 PM 54.1°F12.3°C 44.3°F6.8°C 69% 3.6 mph NE5.8 kmh NE 8.0 mph12.9 kmh 30.08 in1018.6 mb 0.00 in0.0 mm 0.00 in0.0 mm 0.16 in4.1 mm
10:58 PM 54.2°F12.3°C 44.0°F6.7°C 68% 2.7 mph NE4.3 kmh NE 8.0 mph12.9 kmh 30.07 in1018.3 mb 0.00 in0.0 mm 0.00 in0.0 mm 0.16 in4.1 mm
11:03 PM 54.0°F12.2°C 44.2°F6.8°C 69% 2.9 mph NE4.7 kmh NE 8.0 mph12.9 kmh 30.07 in1018.3 mb 0.00 in0.0 mm 0.00 in0.0 mm 0.16 in4.1 mm
11:08 PM 53.9°F12.2°C 43.7°F6.5°C 68% 4.5 mph NE7.2 kmh NE 10.0 mph16.1 kmh 30.07 in1018.3 mb 0.00 in0.0 mm 0.00 in0.0 mm 0.16 in4.1 mm
11:13 PM 53.9°F12.2°C 43.3°F6.3°C 67% 5.7 mph NE9.2 kmh NE 10.0 mph16.1 kmh 30.07 in1018.3 mb 0.00 in0.0 mm 0.00 in0.0 mm 0.16 in4.1 mm
11:18 PM 53.8°F12.1°C 43.2°F6.2°C 67% 5.8 mph NE9.3 kmh NE 11.0 mph17.7 kmh 30.07 in1018.3 mb 0.00 in0.0 mm 0.00 in0.0 mm 0.16 in4.1 mm
11:23 PM 53.8°F12.1°C 43.2°F6.2°C 67% 3.9 mph NE6.3 kmh NE 11.0 mph17.7 kmh 30.07 in1018.3 mb 0.00 in0.0 mm 0.00 in0.0 mm 0.16 in4.1 mm
11:28 PM 53.6°F12.0°C 42.6°F5.9°C 66% 5.5 mph NE8.9 kmh NE 11.0 mph17.7 kmh 30.07 in1018.3 mb 0.00 in0.0 mm 0.00 in0.0 mm 0.16 in4.1 mm
11:33 PM 53.5°F11.9°C 42.9°F6.1°C 67% 4.5 mph NE7.2 kmh NE 11.0 mph17.7 kmh 30.07 in1018.3 mb 0.00 in0.0 mm 0.00 in0.0 mm 0.16 in4.1 mm
11:38 PM 53.4°F11.9°C 42.7°F5.9°C 67% 3.4 mph NE5.5 kmh NE 9.0 mph14.5 kmh 30.07 in1018.3 mb 0.00 in0.0 mm 0.00 in0.0 mm 0.16 in4.1 mm
11:43 PM 53.3°F11.8°C 43.1°F6.2°C 68% 1.7 mph NE2.7 kmh NE 9.0 mph14.5 kmh 30.07 in1018.3 mb 0.00 in0.0 mm 0.00 in0.0 mm 0.16 in4.1 mm
11:48 PM 53.1°F11.7°C 43.3°F6.3°C 69% 3.0 mph NE4.8 kmh NE 9.0 mph14.5 kmh 30.07 in1018.3 mb 0.00 in0.0 mm 0.00 in0.0 mm 0.16 in4.1 mm
11:53 PM 53.1°F11.7°C 43.3°F6.3°C 69% 2.4 mph NE3.9 kmh NE 8.0 mph12.9 kmh 30.07 in1018.3 mb 0.00 in0.0 mm 0.00 in0.0 mm 0.16 in4.1 mm
11:58 PM 53.0°F11.7°C 43.2°F6.2°C 69% 2.2 mph NE3.5 kmh NE 8.0 mph12.9 kmh 30.07 in1018.3 mb 0.00 in0.0 mm 0.00 in0.0 mm 0.16 in4.1 mm